EKAE weather

Ærø Airport
Ærø, South Denmark, Denmark

Public forecast

Using degrees Celsius for public forecast. Weather courtesy of forecast.io.

METAR (pilot weather report)

Closest report is Sønderborg Airport, 23.9 nm (44.3 km) WNW. Retrieved 2019/07/21 03:20 UTC (6 minutes ago):

EKSB 210320Z AUTO 20003KT 7000NDV FEW006/// SCT016/// 16/15 Q1010

TAF (pilot weather forecast)

Forecast is more than 12 hours old.

Closest forecast is Sønderborg Airport, 23.9 nm (44.3 km) WNW. Retrieved 2016/01/27 09:03 UTC (3 years ago):

TAF TAF EKSB 270856Z 2709/2721 23022KT 5000 -RA BR BKN008 TEMPO 2709/2721 24025G40KT 2000 RADZ BKN004